KTOA/TOA METAR and TAF weather

Enter ICAO airport designator
Station Type Date Time Source
KTOA METAR 2020/11/27 01:48 UTC NOAA

KTOA 270148Z 12004KT 10SM SKC 13/07 A3004 RMK LAST


Station Type Date Time Source
KTOA Decoded METAR 2020/11/27 01:48 UTC NOAA

Torrance, Zamperini Field Airport, CA, United States (KTOA) 33-48N 118-20W
Nov 26, 2020 - 08:48 PM EST / 2020.11.27 0148 UTC
Wind: from the ESE (120 degrees) at 5 MPH (4 KT):0
Visibility: 10 mile(s):0
Sky conditions: clear
Temperature: 55 F (13 C)
Dew Point: 44 F (7 C)
Relative Humidity: 66%
Pressure (altimeter): 30.04 in. Hg (1017 hPa)
ob: KTOA 270148Z 12004KT 10SM SKC 13/07 A3004 RMK LAST
cycle: 2

Station Type Date Time Source
KTOA TAF UTC NOAA

Error!

Example: see airport list